sensor_id;sensor_type;location;lat;lon;timestamp;pressure;altitude;pressure_sealevel;temperature;humidity
22440;BME280;11387;51.612;7.210;2023-04-22T00:01:11;100063.50;;;6.76;100.00
22440;BME280;11387;51.612;7.210;2023-04-22T00:03:39;100061.66;;;6.72;100.00
22440;BME280;11387;51.612;7.210;2023-04-22T00:06:08;100060.84;;;6.71;100.00
22440;BME280;11387;51.612;7.210;2023-04-22T00:08:38;100060.63;;;6.68;100.00
22440;BME280;11387;51.612;7.210;2023-04-22T00:11:06;100066.19;;;6.82;100.00
22440;BME280;11387;51.612;7.210;2023-04-22T00:13:34;100058.78;;;6.87;100.00
22440;BME280;11387;51.612;7.210;2023-04-22T00:16:03;100055.50;;;6.90;100.00
22440;BME280;11387;51.612;7.210;2023-04-22T00:18:32;100047.91;;;6.87;100.00
22440;BME280;11387;51.612;7.210;2023-04-22T00:21:01;100042.47;;;6.87;100.00
22440;BME280;11387;51.612;7.210;2023-04-22T00:23:29;100041.38;;;6.88;100.00
22440;BME280;11387;51.612;7.210;2023-04-22T00:25:59;100039.69;;;6.92;100.00
22440;BME280;11387;51.612;7.210;2023-04-22T00:28:27;100037.97;;;7.01;100.00
22440;BME280;11387;51.612;7.210;2023-04-22T00:30:55;100039.41;;;6.94;100.00
22440;BME280;11387;51.612;7.210;2023-04-22T00:33:24;100039.94;;;6.96;100.00
22440;BME280;11387;51.612;7.210;2023-04-22T00:35:52;100034.50;;;6.96;100.00
22440;BME280;11387;51.612;7.210;2023-04-22T00:38:21;100036.22;;;6.87;100.00
22440;BME280;11387;51.612;7.210;2023-04-22T00:40:49;100033.25;;;6.83;100.00
22440;BME280;11387;51.612;7.210;2023-04-22T00:43:19;100030.31;;;6.80;100.00
22440;BME280;11387;51.612;7.210;2023-04-22T00:45:47;100035.88;;;6.69;100.00
22440;BME280;11387;51.612;7.210;2023-04-22T00:48:16;100039.97;;;6.67;100.00
22440;BME280;11387;51.612;7.210;2023-04-22T00:50:44;100037.81;;;6.64;100.00
22440;BME280;11387;51.612;7.210;2023-04-22T00:53:12;100036.16;;;6.68;100.00
22440;BME280;11387;51.612;7.210;2023-04-22T00:55:40;100032.63;;;6.67;100.00
22440;BME280;11387;51.612;7.210;2023-04-22T00:58:09;100035.06;;;6.69;100.00
22440;BME280;11387;51.612;7.210;2023-04-22T01:00:38;100029.22;;;6.81;100.00
22440;BME280;11387;51.612;7.210;2023-04-22T01:03:07;100025.09;;;6.83;100.00
22440;BME280;11387;51.612;7.210;2023-04-22T01:05:35;100021.28;;;6.84;100.00
22440;BME280;11387;51.612;7.210;2023-04-22T01:08:03;100017.47;;;6.85;100.00
22440;BME280;11387;51.612;7.210;2023-04-22T01:10:32;100024.53;;;6.86;100.00
22440;BME280;11387;51.612;7.210;2023-04-22T01:13:00;100017.44;;;6.90;100.00
22440;BME280;11387;51.612;7.210;2023-04-22T01:15:28;100021.47;;;6.93;100.00
22440;BME280;11387;51.612;7.210;2023-04-22T01:17:58;100024.16;;;6.98;100.00
22440;BME280;11387;51.612;7.210;2023-04-22T01:20:45;100020.03;;;7.00;100.00
22440;BME280;11387;51.612;7.210;2023-04-22T01:23:17;100024.81;;;7.08;100.00
22440;BME280;11387;51.612;7.210;2023-04-22T01:25:46;100026.97;;;7.12;100.00
22440;BME280;11387;51.612;7.210;2023-04-22T01:28:15;100022.03;;;7.14;100.00
22440;BME280;11387;51.612;7.210;2023-04-22T01:30:43;100021.00;;;7.09;100.00
22440;BME280;11387;51.612;7.210;2023-04-22T01:33:11;100018.28;;;7.09;100.00
22440;BME280;11387;51.612;7.210;2023-04-22T01:35:40;100015.25;;;7.11;100.00
22440;BME280;11387;51.612;7.210;2023-04-22T01:38:09;100019.91;;;7.10;100.00
22440;BME280;11387;51.612;7.210;2023-04-22T01:40:38;100013.34;;;7.12;100.00
22440;BME280;11387;51.612;7.210;2023-04-22T01:43:07;100020.41;;;7.13;100.00
22440;BME280;11387;51.612;7.210;2023-04-22T01:45:35;100019.84;;;7.16;100.00
22440;BME280;11387;51.612;7.210;2023-04-22T01:48:03;100023.84;;;7.23;100.00
22440;BME280;11387;51.612;7.210;2023-04-22T01:50:32;100024.66;;;7.24;100.00
22440;BME280;11387;51.612;7.210;2023-04-22T01:53:01;100023.84;;;7.23;100.00
22440;BME280;11387;51.612;7.210;2023-04-22T01:55:29;100028.75;;;7.21;100.00
22440;BME280;11387;51.612;7.210;2023-04-22T01:58:03;100033.91;;;7.23;100.00
22440;BME280;11387;51.612;7.210;2023-04-22T02:00:31;100022.44;;;7.26;100.00
22440;BME280;11387;51.612;7.210;2023-04-22T02:03:00;100025.75;;;7.23;100.00
22440;BME280;11387;51.612;7.210;2023-04-22T02:05:28;100025.47;;;7.24;100.00
22440;BME280;11387;51.612;7.210;2023-04-22T02:07:57;100022.44;;;7.26;100.00
22440;BME280;11387;51.612;7.210;2023-04-22T02:10:25;100022.69;;;7.29;100.00
22440;BME280;11387;51.612;7.210;2023-04-22T02:12:53;100023.50;;;7.30;100.00
22440;BME280;11387;51.612;7.210;2023-04-22T02:15:23;100018.84;;;7.30;100.00
22440;BME280;11387;51.612;7.210;2023-04-22T02:17:51;100015.03;;;7.31;100.00
22440;BME280;11387;51.612;7.210;2023-04-22T02:20:19;100018.28;;;7.33;100.00
22440;BME280;11387;51.612;7.210;2023-04-22T02:22:48;100023.91;;;7.37;100.00
22440;BME280;11387;51.612;7.210;2023-04-22T02:25:17;100017.91;;;7.40;100.00
22440;BME280;11387;51.612;7.210;2023-04-22T02:27:45;100017.91;;;7.40;100.00
22440;BME280;11387;51.612;7.210;2023-04-22T02:30:13;100016.28;;;7.39;100.00
22440;BME280;11387;51.612;7.210;2023-04-22T02:32:43;100021.44;;;7.40;100.00
22440;BME280;11387;51.612;7.210;2023-04-22T02:35:12;100019.50;;;7.41;100.00
22440;BME280;11387;51.612;7.210;2023-04-22T02:37:40;100018.47;;;7.37;100.00
22440;BME280;11387;51.612;7.210;2023-04-22T02:40:09;100016.84;;;7.36;100.00
22440;BME280;11387;51.612;7.210;2023-04-22T02:42:37;100011.41;;;7.36;100.00
22440;BME280;11387;51.612;7.210;2023-04-22T02:45:06;100012.50;;;7.35;100.00
22440;BME280;11387;51.612;7.210;2023-04-22T02:47:34;100013.03;;;7.37;100.00
22440;BME280;11387;51.612;7.210;2023-04-22T02:50:04;100004.28;;;7.40;100.00
22440;BME280;11387;51.612;7.210;2023-04-22T02:52:34;100003.72;;;7.43;100.00
22440;BME280;11387;51.612;7.210;2023-04-22T02:55:02;100005.03;;;7.46;100.00
22440;BME280;11387;51.612;7.210;2023-04-22T02:57:35;99999.00;;;7.49;100.00
22440;BME280;11387;51.612;7.210;2023-04-22T03:00:04;100001.97;;;7.52;100.00
22440;BME280;11387;51.612;7.210;2023-04-22T03:02:32;99997.84;;;7.55;100.00
22440;BME280;11387;51.612;7.210;2023-04-22T03:05:00;99994.81;;;7.56;100.00
22440;BME280;11387;51.612;7.210;2023-04-22T03:07:30;99999.69;;;7.59;100.00
22440;BME280;11387;51.612;7.210;2023-04-22T03:10:02;99992.03;;;7.61;100.00
22440;BME280;11387;51.612;7.210;2023-04-22T03:12:38;99989.38;;;7.56;100.00
22440;BME280;11387;51.612;7.210;2023-04-22T03:15:07;99989.38;;;7.56;100.00
22440;BME280;11387;51.612;7.210;2023-04-22T03:17:35;99986.59;;;7.61;100.00
22440;BME280;11387;51.612;7.210;2023-04-22T03:20:04;99986.66;;;7.56;100.00
22440;BME280;11387;51.612;7.210;2023-04-22T03:22:34;99985.34;;;7.54;100.00
22440;BME280;11387;51.612;7.210;2023-04-22T03:25:03;99988.06;;;7.54;100.00
22440;BME280;11387;51.612;7.210;2023-04-22T03:27:32;99992.63;;;7.58;100.00
22440;BME280;11387;51.612;7.210;2023-04-22T03:30:00;99979.59;;;7.55;100.00
22440;BME280;11387;51.612;7.210;2023-04-22T03:32:28;99986.38;;;7.58;100.00
22440;BME280;11387;51.612;7.210;2023-04-22T03:34:57;99977.31;;;7.62;100.00
22440;BME280;11387;51.612;7.210;2023-04-22T03:37:25;99974.31;;;7.64;100.00
22440;BME280;11387;51.612;7.210;2023-04-22T03:39:55;99976.22;;;7.63;100.00
22440;BME280;11387;51.612;7.210;2023-04-22T03:42:24;99975.09;;;7.64;100.00
22440;BME280;11387;51.612;7.210;2023-04-22T03:44:52;99982.97;;;7.66;100.00
22440;BME280;11387;51.612;7.210;2023-04-22T03:47:20;99965.81;;;7.65;100.00
22440;BME280;11387;51.612;7.210;2023-04-22T03:49:49;99972.38;;;7.64;100.00
22440;BME280;11387;51.612;7.210;2023-04-22T03:52:18;99966.44;;;7.62;100.00
22440;BME280;11387;51.612;7.210;2023-04-22T03:54:46;99970.78;;;7.63;100.00
22440;BME280;11387;51.612;7.210;2023-04-22T03:57:16;99968.63;;;7.60;100.00
22440;BME280;11387;51.612;7.210;2023-04-22T03:59:45;99965.91;;;7.60;100.00
22440;BME280;11387;51.612;7.210;2023-04-22T04:02:23;99962.59;;;7.63;100.00
22440;BME280;11387;51.612;7.210;2023-04-22T04:04:51;99959.88;;;7.63;100.00
22440;BME280;11387;51.612;7.210;2023-04-22T04:07:20;99960.19;;;7.62;100.00
22440;BME280;11387;51.612;7.210;2023-04-22T04:09:48;99957.66;;;7.65;100.00
22440;BME280;11387;51.612;7.210;2023-04-22T04:12:18;99964.19;;;7.64;100.00
22440;BME280;11387;51.612;7.210;2023-04-22T04:15:01;99958.84;;;7.59;100.00
22440;BME280;11387;51.612;7.210;2023-04-22T04:17:29;99960.53;;;7.55;100.00
22440;BME280;11387;51.612;7.210;2023-04-22T04:19:57;99957.75;;;7.60;100.00
22440;BME280;11387;51.612;7.210;2023-04-22T04:22:26;99951.88;;;7.53;100.00
22440;BME280;11387;51.612;7.210;2023-04-22T04:24:55;99951.34;;;7.51;100.00
22440;BME280;11387;51.612;7.210;2023-04-22T04:27:25;99954.06;;;7.51;100.00
22440;BME280;11387;51.612;7.210;2023-04-22T04:29:53;99943.19;;;7.51;100.00
22440;BME280;11387;51.612;7.210;2023-04-22T04:32:22;99952.91;;;7.57;100.00
22440;BME280;11387;51.612;7.210;2023-04-22T04:34:51;99948.56;;;7.56;100.00
22440;BME280;11387;51.612;7.210;2023-04-22T04:37:19;99944.72;;;7.57;100.00
22440;BME280;11387;51.612;7.210;2023-04-22T04:39:49;99940.09;;;7.58;100.00
22440;BME280;11387;51.612;7.210;2023-04-22T04:42:17;99935.38;;;7.63;100.00
22440;BME280;11387;51.612;7.210;2023-04-22T04:44:47;99933.78;;;7.62;100.00
22440;BME280;11387;51.612;7.210;2023-04-22T04:47:17;99936.97;;;7.64;100.00
22440;BME280;11387;51.612;7.210;2023-04-22T04:49:46;99935.88;;;7.65;100.00
22440;BME280;11387;51.612;7.210;2023-04-22T04:52:14;99930.66;;;7.69;100.00
22440;BME280;11387;51.612;7.210;2023-04-22T04:54:42;99937.13;;;7.73;100.00
22440;BME280;11387;51.612;7.210;2023-04-22T04:57:10;99932.41;;;7.78;100.00
22440;BME280;11387;51.612;7.210;2023-04-22T04:59:39;99936.16;;;7.83;100.00
22440;BME280;11387;51.612;7.210;2023-04-22T05:02:09;99939.97;;;7.82;100.00
22440;BME280;11387;51.612;7.210;2023-04-22T05:04:37;99930.19;;;7.81;100.00
22440;BME280;11387;51.612;7.210;2023-04-22T05:07:05;99931.31;;;7.80;100.00
22440;BME280;11387;51.612;7.210;2023-04-22T05:09:34;99931.81;;;7.82;100.00
22440;BME280;11387;51.612;7.210;2023-04-22T05:12:18;99933.13;;;7.84;100.00
22440;BME280;11387;51.612;7.210;2023-04-22T05:14:47;99926.00;;;7.88;100.00
22440;BME280;11387;51.612;7.210;2023-04-22T05:17:16;99929.13;;;7.95;100.00
22440;BME280;11387;51.612;7.210;2023-04-22T05:19:45;99921.38;;;8.02;100.00
22440;BME280;11387;51.612;7.210;2023-04-22T05:22:13;99926.44;;;8.09;100.00
22440;BME280;11387;51.612;7.210;2023-04-22T05:24:41;99932.13;;;8.13;100.00
22440;BME280;11387;51.612;7.210;2023-04-22T05:27:10;99936.66;;;8.17;100.00
22440;BME280;11387;51.612;7.210;2023-04-22T05:29:38;99928.13;;;8.24;100.00
22440;BME280;11387;51.612;7.210;2023-04-22T05:32:07;99927.69;;;8.30;100.00
22440;BME280;11387;51.612;7.210;2023-04-22T05:34:37;99929.91;;;8.28;100.00
22440;BME280;11387;51.612;7.210;2023-04-22T05:37:07;99928.81;;;8.29;100.00
22440;BME280;11387;51.612;7.210;2023-04-22T05:39:36;99915.03;;;8.39;100.00
22440;BME280;11387;51.612;7.210;2023-04-22T05:42:05;99913.63;;;8.42;100.00
22440;BME280;11387;51.612;7.210;2023-04-22T05:44:35;99922.59;;;8.42;100.00
22440;BME280;11387;51.612;7.210;2023-04-22T05:47:03;99904.53;;;8.47;100.00
22440;BME280;11387;51.612;7.210;2023-04-22T05:49:31;99909.78;;;8.57;100.00
22440;BME280;11387;51.612;7.210;2023-04-22T05:52:09;99918.66;;;8.62;100.00
22440;BME280;11387;51.612;7.210;2023-04-22T05:54:37;99925.94;;;8.67;100.00
22440;BME280;11387;51.612;7.210;2023-04-22T05:57:06;99920.31;;;8.77;100.00
22440;BME280;11387;51.612;7.210;2023-04-22T05:59:48;99917.97;;;8.84;100.00
22440;BME280;11387;51.612;7.210;2023-04-22T06:02:16;99922.50;;;8.89;100.00
22440;BME280;11387;51.612;7.210;2023-04-22T06:04:45;99919.88;;;8.97;100.00
22440;BME280;11387;51.612;7.210;2023-04-22T06:07:14;99924.72;;;9.00;100.00
22440;BME280;11387;51.612;7.210;2023-04-22T06:09:43;99923.09;;;8.99;100.00
22440;BME280;11387;51.612;7.210;2023-04-22T06:12:11;99924.72;;;9.00;100.00
22440;BME280;11387;51.612;7.210;2023-04-22T06:14:39;99920.88;;;9.01;100.00
22440;BME280;11387;51.612;7.210;2023-04-22T06:17:09;99926.03;;;9.17;100.00
22440;BME280;11387;51.612;7.210;2023-04-22T06:19:38;99920.59;;;9.39;100.00
22440;BME280;11387;51.612;7.210;2023-04-22T06:22:08;99919.38;;;9.45;100.00
22440;BME280;11387;51.612;7.210;2023-04-22T06:24:38;99917.81;;;9.53;100.00
22440;BME280;11387;51.612;7.210;2023-04-22T06:27:06;99922.19;;;9.76;100.00
22440;BME280;11387;51.612;7.210;2023-04-22T06:29:35;99924.59;;;10.00;100.00
22440;BME280;11387;51.612;7.210;2023-04-22T06:32:03;99917.63;;;10.16;100.00
22440;BME280;11387;51.612;7.210;2023-04-22T06:34:32;99924.97;;;10.29;100.00
22440;BME280;11387;51.612;7.210;2023-04-22T06:37:00;99920.88;;;10.49;100.00
22440;BME280;11387;51.612;7.210;2023-04-22T06:39:28;99920.78;;;10.63;100.00
22440;BME280;11387;51.612;7.210;2023-04-22T06:41:58;99910.53;;;10.77;100.00
22440;BME280;11387;51.612;7.210;2023-04-22T06:44:27;99915.44;;;10.97;100.00
22440;BME280;11387;51.612;7.210;2023-04-22T06:46:55;99920.13;;;11.23;100.00
22440;BME280;11387;51.612;7.210;2023-04-22T06:49:46;99916.94;;;11.29;100.00
22440;BME280;11387;51.612;7.210;2023-04-22T06:52:15;99917.41;;;11.40;100.00
22440;BME280;11387;51.612;7.210;2023-04-22T06:54:43;99916.63;;;11.57;100.00
22440;BME280;11387;51.612;7.210;2023-04-22T06:57:12;99914.50;;;11.62;100.00
22440;BME280;11387;51.612;7.210;2023-04-22T06:59:41;99912.44;;;11.76;100.00
22440;BME280;11387;51.612;7.210;2023-04-22T07:02:12;99902.06;;;12.17;100.00
22440;BME280;11387;51.612;7.210;2023-04-22T07:04:41;99907.63;;;12.37;100.00
22440;BME280;11387;51.612;7.210;2023-04-22T07:07:09;99907.13;;;12.53;100.00
22440;BME280;11387;51.612;7.210;2023-04-22T07:09:38;99904.78;;;12.63;100.00
22440;BME280;11387;51.612;7.210;2023-04-22T07:12:08;99909.47;;;12.63;100.00
22440;BME280;11387;51.612;7.210;2023-04-22T07:14:39;99908.13;;;12.39;100.00
22440;BME280;11387;51.612;7.210;2023-04-22T07:17:09;99907.28;;;12.47;100.00
22440;BME280;11387;51.612;7.210;2023-04-22T07:19:37;99906.81;;;12.45;100.00
22440;BME280;11387;51.612;7.210;2023-04-22T07:22:06;99903.84;;;12.21;99.42
22440;BME280;11387;51.612;7.210;2023-04-22T07:24:34;99895.47;;;12.09;100.00
22440;BME280;11387;51.612;7.210;2023-04-22T07:27:03;99908.28;;;12.34;99.97
22440;BME280;11387;51.612;7.210;2023-04-22T07:29:32;99905.50;;;12.52;99.21
22440;BME280;11387;51.612;7.210;2023-04-22T07:32:01;99909.00;;;12.90;95.78
22440;BME280;11387;51.612;7.210;2023-04-22T07:34:30;99902.22;;;13.67;93.61
22440;BME280;11387;51.612;7.210;2023-04-22T07:36:58;99892.16;;;14.49;81.56
22440;BME280;11387;51.612;7.210;2023-04-22T07:39:27;99890.16;;;15.75;74.26
22440;BME280;11387;51.612;7.210;2023-04-22T07:41:55;99899.56;;;16.93;70.45
22440;BME280;11387;51.612;7.210;2023-04-22T07:44:24;99897.19;;;18.04;67.15
22440;BME280;11387;51.612;7.210;2023-04-22T07:46:53;99888.84;;;19.44;59.96
22440;BME280;11387;51.612;7.210;2023-04-22T07:49:24;99888.84;;;20.93;52.83
22440;BME280;11387;51.612;7.210;2023-04-22T07:51:53;99894.66;;;22.11;46.88
22440;BME280;11387;51.612;7.210;2023-04-22T07:54:21;99889.31;;;21.71;47.11
22440;BME280;11387;51.612;7.210;2023-04-22T07:56:50;99890.38;;;22.81;46.20
22440;BME280;11387;51.612;7.210;2023-04-22T07:59:18;99884.34;;;24.20;41.98
22440;BME280;11387;51.612;7.210;2023-04-22T08:01:47;99867.06;;;23.66;40.56
22440;BME280;11387;51.612;7.210;2023-04-22T08:04:15;99872.13;;;24.59;38.89
22440;BME280;11387;51.612;7.210;2023-04-22T08:06:45;99869.63;;;23.00;41.41
22440;BME280;11387;51.612;7.210;2023-04-22T08:09:14;99861.25;;;23.14;41.51
22440;BME280;11387;51.612;7.210;2023-04-22T08:11:42;99859.97;;;23.37;41.30
22440;BME280;11387;51.612;7.210;2023-04-22T08:14:12;99861.69;;;22.92;40.79
22440;BME280;11387;51.612;7.210;2023-04-22T08:16:40;99870.22;;;21.73;43.86
22440;BME280;11387;51.612;7.210;2023-04-22T08:19:09;99860.59;;;20.87;46.16
22440;BME280;11387;51.612;7.210;2023-04-22T08:21:43;99862.63;;;20.94;46.97
22440;BME280;11387;51.612;7.210;2023-04-22T08:24:13;99866.09;;;21.42;45.12
22440;BME280;11387;51.612;7.210;2023-04-22T08:26:42;99858.22;;;21.51;44.03
22440;BME280;11387;51.612;7.210;2023-04-22T08:29:10;99844.94;;;22.24;41.33
22440;BME280;11387;51.612;7.210;2023-04-22T08:31:39;99859.25;;;22.33;40.07
22440;BME280;11387;51.612;7.210;2023-04-22T08:34:08;99846.50;;;23.17;38.42
22440;BME280;11387;51.612;7.210;2023-04-22T08:36:36;99843.09;;;23.79;37.24
22440;BME280;11387;51.612;7.210;2023-04-22T08:39:04;99848.09;;;22.97;38.05
22440;BME280;11387;51.612;7.210;2023-04-22T08:41:34;99849.31;;;24.05;37.00
22440;BME280;11387;51.612;7.210;2023-04-22T08:44:04;99838.91;;;24.09;36.78
22440;BME280;11387;51.612;7.210;2023-04-22T08:46:32;99844.50;;;24.09;34.64
22440;BME280;11387;51.612;7.210;2023-04-22T08:49:01;99846.94;;;24.03;35.62
22440;BME280;11387;51.612;7.210;2023-04-22T08:51:31;99842.84;;;23.31;36.59
22440;BME280;11387;51.612;7.210;2023-04-22T08:53:59;99833.38;;;24.02;35.49
22440;BME280;11387;51.612;7.210;2023-04-22T08:56:27;99827.78;;;24.02;36.04
22440;BME280;11387;51.612;7.210;2023-04-22T08:58:58;99831.84;;;23.87;36.46
22440;BME280;11387;51.612;7.210;2023-04-22T09:01:27;99831.97;;;23.69;36.16
22440;BME280;11387;51.612;7.210;2023-04-22T09:03:57;99822.06;;;23.43;36.70
22440;BME280;11387;51.612;7.210;2023-04-22T09:06:26;99826.38;;;24.79;35.01
22440;BME280;11387;51.612;7.210;2023-04-22T09:08:54;99825.88;;;25.33;33.26
22440;BME280;11387;51.612;7.210;2023-04-22T09:11:25;99811.38;;;24.11;35.28
22440;BME280;11387;51.612;7.210;2023-04-22T09:13:53;99820.38;;;23.70;35.14
22440;BME280;11387;51.612;7.210;2023-04-22T09:16:23;99834.53;;;23.10;35.69
22440;BME280;11387;51.612;7.210;2023-04-22T09:18:51;99817.88;;;22.57;37.00
22440;BME280;11387;51.612;7.210;2023-04-22T09:21:19;99818.25;;;22.62;37.33
22440;BME280;11387;51.612;7.210;2023-04-22T09:23:53;99801.84;;;23.98;35.28
22440;BME280;11387;51.612;7.210;2023-04-22T09:26:21;99800.03;;;24.36;34.92
22440;BME280;11387;51.612;7.210;2023-04-22T09:28:50;99797.63;;;24.34;34.27
22440;BME280;11387;51.612;7.210;2023-04-22T09:31:19;99796.22;;;25.96;32.07
22440;BME280;11387;51.612;7.210;2023-04-22T09:33:50;99802.63;;;25.36;33.45
22440;BME280;11387;51.612;7.210;2023-04-22T09:36:20;99817.63;;;26.10;30.62
22440;BME280;11387;51.612;7.210;2023-04-22T09:38:52;99805.16;;;25.88;30.67
22440;BME280;11387;51.612;7.210;2023-04-22T09:41:27;99803.47;;;26.21;30.68
22440;BME280;11387;51.612;7.210;2023-04-22T09:43:56;99811.22;;;25.52;31.48
22440;BME280;11387;51.612;7.210;2023-04-22T09:46:26;99808.41;;;25.18;31.98
22440;BME280;11387;51.612;7.210;2023-04-22T09:48:56;99790.59;;;25.69;31.98
22440;BME280;11387;51.612;7.210;2023-04-22T09:51:26;99819.59;;;26.13;30.84
22440;BME280;11387;51.612;7.210;2023-04-22T09:53:58;99792.66;;;25.65;31.64
22440;BME280;11387;51.612;7.210;2023-04-22T09:59:11;99793.78;;;26.72;30.24
22440;BME280;11387;51.612;7.210;2023-04-22T10:01:40;99794.00;;;25.20;32.24
22440;BME280;11387;51.612;7.210;2023-04-22T10:04:12;99789.00;;;26.22;30.33
22440;BME280;11387;51.612;7.210;2023-04-22T10:06:42;99779.72;;;27.19;29.64
22440;BME280;11387;51.612;7.210;2023-04-22T10:09:10;99797.94;;;26.64;29.98
22440;BME280;11387;51.612;7.210;2023-04-22T10:11:39;99767.91;;;27.99;28.26
22440;BME280;11387;51.612;7.210;2023-04-22T10:14:08;99780.84;;;28.45;28.11
22440;BME280;11387;51.612;7.210;2023-04-22T10:16:37;99776.75;;;28.79;26.99
22440;BME280;11387;51.612;7.210;2023-04-22T10:19:06;99775.03;;;29.14;27.37
22440;BME280;11387;51.612;7.210;2023-04-22T10:21:36;99773.28;;;26.98;29.23
22440;BME280;11387;51.612;7.210;2023-04-22T10:24:05;99774.25;;;26.88;29.30
22440;BME280;11387;51.612;7.210;2023-04-22T10:26:46;99763.88;;;26.42;30.24
22440;BME280;11387;51.612;7.210;2023-04-22T10:29:17;99787.19;;;25.21;31.67
22440;BME280;11387;51.612;7.210;2023-04-22T10:31:50;99765.06;;;25.91;30.64
22440;BME280;11387;51.612;7.210;2023-04-22T10:34:19;99757.53;;;26.11;31.22
22440;BME280;11387;51.612;7.210;2023-04-22T10:36:55;99762.88;;;27.91;28.39
22440;BME280;11387;51.612;7.210;2023-04-22T10:39:25;99755.75;;;26.47;30.74
22440;BME280;11387;51.612;7.210;2023-04-22T10:41:55;99758.81;;;25.18;32.15
22440;BME280;11387;51.612;7.210;2023-04-22T10:44:26;99753.69;;;23.79;34.18
22440;BME280;11387;51.612;7.210;2023-04-22T10:46:58;99763.34;;;23.64;34.95
22440;BME280;11387;51.612;7.210;2023-04-22T10:49:30;99763.25;;;25.46;31.83
22440;BME280;11387;51.612;7.210;2023-04-22T10:52:03;99749.38;;;28.50;27.80
22440;BME280;11387;51.612;7.210;2023-04-22T10:54:58;99739.22;;;29.94;26.29
22440;BME280;11387;51.612;7.210;2023-04-22T10:57:28;99746.25;;;28.77;27.03
22440;BME280;11387;51.612;7.210;2023-04-22T11:02:45;99743.34;;;28.36;27.56
22440;BME280;11387;51.612;7.210;2023-04-22T11:05:17;99745.31;;;29.26;26.20
22440;BME280;11387;51.612;7.210;2023-04-22T11:07:48;99747.63;;;25.18;31.75
22440;BME280;11387;51.612;7.210;2023-04-22T11:10:29;99738.34;;;24.50;32.99
22440;BME280;11387;51.612;7.210;2023-04-22T11:12:57;99736.41;;;25.79;30.78
22440;BME280;11387;51.612;7.210;2023-04-22T11:15:27;99726.00;;;27.52;29.13
22440;BME280;11387;51.612;7.210;2023-04-22T11:17:56;99722.69;;;28.71;27.10
22440;BME280;11387;51.612;7.210;2023-04-22T11:20:25;99731.88;;;29.84;25.75
22440;BME280;11387;51.612;7.210;2023-04-22T11:22:55;99728.06;;;31.07;24.92
22440;BME280;11387;51.612;7.210;2023-04-22T11:25:24;99720.63;;;30.57;24.15
22440;BME280;11387;51.612;7.210;2023-04-22T11:27:52;99728.94;;;27.65;28.43
22440;BME280;11387;51.612;7.210;2023-04-22T11:30:21;99732.50;;;26.24;30.73
22440;BME280;11387;51.612;7.210;2023-04-22T11:32:50;99725.66;;;25.17;32.29
22440;BME280;11387;51.612;7.210;2023-04-22T11:35:19;99724.75;;;24.07;33.99
22440;BME280;11387;51.612;7.210;2023-04-22T11:37:49;99725.59;;;23.35;35.15
22440;BME280;11387;51.612;7.210;2023-04-22T11:40:19;99732.69;;;23.57;35.10
22440;BME280;11387;51.612;7.210;2023-04-22T11:42:58;99734.91;;;23.03;36.24
22440;BME280;11387;51.612;7.210;2023-04-22T11:45:27;99742.16;;;22.83;36.82
22440;BME280;11387;51.612;7.210;2023-04-22T11:47:56;99745.78;;;22.37;37.95
22440;BME280;11387;51.612;7.210;2023-04-22T11:50:24;99747.00;;;23.66;35.83
22440;BME280;11387;51.612;7.210;2023-04-22T11:52:54;99738.72;;;23.41;36.89
22440;BME280;11387;51.612;7.210;2023-04-22T11:55:27;99748.91;;;22.75;37.68
22440;BME280;11387;51.612;7.210;2023-04-22T11:57:57;99756.53;;;22.57;37.59
22440;BME280;11387;51.612;7.210;2023-04-22T12:00:27;99752.13;;;21.84;39.21
22440;BME280;11387;51.612;7.210;2023-04-22T12:02:57;99755.63;;;21.53;39.88
22440;BME280;11387;51.612;7.210;2023-04-22T12:05:35;99752.75;;;21.25;41.25
22440;BME280;11387;51.612;7.210;2023-04-22T12:08:07;99744.97;;;20.79;42.61
22440;BME280;11387;51.612;7.210;2023-04-22T12:10:41;99763.69;;;20.89;42.21
22440;BME280;11387;51.612;7.210;2023-04-22T12:13:16;99751.63;;;21.43;41.28
22440;BME280;11387;51.612;7.210;2023-04-22T12:15:45;99744.47;;;21.39;41.19
22440;BME280;11387;51.612;7.210;2023-04-22T12:18:13;99742.19;;;21.87;40.27
22440;BME280;11387;51.612;7.210;2023-04-22T12:20:42;99750.94;;;21.96;40.79
22440;BME280;11387;51.612;7.210;2023-04-22T12:23:10;99745.38;;;22.00;40.21
22440;BME280;11387;51.612;7.210;2023-04-22T12:25:40;99756.41;;;21.50;41.02
22440;BME280;11387;51.612;7.210;2023-04-22T12:28:09;99748.44;;;21.38;41.40
22440;BME280;11387;51.612;7.210;2023-04-22T12:30:44;99756.03;;;21.55;41.30
22440;BME280;11387;51.612;7.210;2023-04-22T12:33:12;99752.50;;;21.76;40.66
22440;BME280;11387;51.612;7.210;2023-04-22T12:35:41;99746.53;;;22.77;38.91
22440;BME280;11387;51.612;7.210;2023-04-22T12:38:09;99743.44;;;24.62;35.60
22440;BME280;11387;51.612;7.210;2023-04-22T12:40:37;99736.78;;;24.87;34.55
22440;BME280;11387;51.612;7.210;2023-04-22T12:43:07;99739.00;;;24.20;35.43
22440;BME280;11387;51.612;7.210;2023-04-22T12:45:35;99735.63;;;23.91;36.64
22440;BME280;11387;51.612;7.210;2023-04-22T12:48:03;99736.25;;;22.31;39.42
22440;BME280;11387;51.612;7.210;2023-04-22T12:50:32;99729.75;;;21.42;41.28
22440;BME280;11387;51.612;7.210;2023-04-22T12:53:00;99728.44;;;21.14;42.11
22440;BME280;11387;51.612;7.210;2023-04-22T12:55:28;99732.69;;;20.87;43.02
22440;BME280;11387;51.612;7.210;2023-04-22T12:57:56;99740.09;;;20.62;44.02
22440;BME280;11387;51.612;7.210;2023-04-22T13:00:26;99735.50;;;20.32;46.33
22440;BME280;11387;51.612;7.210;2023-04-22T13:02:55;99747.94;;;20.49;46.64
22440;BME280;11387;51.612;7.210;2023-04-22T13:05:24;99738.28;;;20.94;44.10
22440;BME280;11387;51.612;7.210;2023-04-22T13:07:52;99734.94;;;21.36;42.49
22440;BME280;11387;51.612;7.210;2023-04-22T13:10:23;99735.44;;;22.02;41.55
22440;BME280;11387;51.612;7.210;2023-04-22T13:12:54;99736.13;;;23.82;37.66
22440;BME280;11387;51.612;7.210;2023-04-22T13:15:44;99731.81;;;24.67;34.70